sensor_id;sensor_type;location;lat;lon;timestamp;temperature;humidity
10384;DHT22;5238;43.508;4.980;2022-10-28T00:01:39;20.20;91.30
10384;DHT22;5238;43.508;4.980;2022-10-28T00:04:09;20.10;91.30
10384;DHT22;5238;43.508;4.980;2022-10-28T00:06:44;20.10;91.30
10384;DHT22;5238;43.508;4.980;2022-10-28T00:09:17;20.10;91.30
10384;DHT22;5238;43.508;4.980;2022-10-28T00:11:45;20.10;91.30
10384;DHT22;5238;43.508;4.980;2022-10-28T00:14:17;20.00;91.30
10384;DHT22;5238;43.508;4.980;2022-10-28T00:16:45;20.00;91.30
10384;DHT22;5238;43.508;4.980;2022-10-28T00:19:25;20.00;91.30
10384;DHT22;5238;43.508;4.980;2022-10-28T00:22:06;20.00;91.30
10384;DHT22;5238;43.508;4.980;2022-10-28T00:24:38;19.90;91.30
10384;DHT22;5238;43.508;4.980;2022-10-28T00:27:13;19.90;91.30
10384;DHT22;5238;43.508;4.980;2022-10-28T00:29:43;19.90;91.30
10384;DHT22;5238;43.508;4.980;2022-10-28T00:32:11;19.90;91.30
10384;DHT22;5238;43.508;4.980;2022-10-28T00:34:52;19.80;91.30
10384;DHT22;5238;43.508;4.980;2022-10-28T00:37:23;19.80;91.30
10384;DHT22;5238;43.508;4.980;2022-10-28T00:39:56;19.80;91.30
10384;DHT22;5238;43.508;4.980;2022-10-28T00:42:24;19.80;91.30
10384;DHT22;5238;43.508;4.980;2022-10-28T00:45:15;19.80;91.30
10384;DHT22;5238;43.508;4.980;2022-10-28T00:47:48;19.70;91.30
10384;DHT22;5238;43.508;4.980;2022-10-28T00:50:42;19.70;91.30
10384;DHT22;5238;43.508;4.980;2022-10-28T00:53:19;19.70;91.30
10384;DHT22;5238;43.508;4.980;2022-10-28T00:55:50;19.60;91.30
10384;DHT22;5238;43.508;4.980;2022-10-28T00:58:20;19.60;91.30
10384;DHT22;5238;43.508;4.980;2022-10-28T01:01:08;19.60;91.30
10384;DHT22;5238;43.508;4.980;2022-10-28T01:03:49;19.50;91.30
10384;DHT22;5238;43.508;4.980;2022-10-28T01:06:25;19.50;91.30
10384;DHT22;5238;43.508;4.980;2022-10-28T01:09:01;19.50;91.30
10384;DHT22;5238;43.508;4.980;2022-10-28T01:11:53;19.50;91.30
10384;DHT22;5238;43.508;4.980;2022-10-28T01:14:35;19.40;91.30
10384;DHT22;5238;43.508;4.980;2022-10-28T01:17:26;19.40;91.30
10384;DHT22;5238;43.508;4.980;2022-10-28T01:23:12;19.30;91.30
10384;DHT22;5238;43.508;4.980;2022-10-28T01:26:08;19.30;91.30
10384;DHT22;5238;43.508;4.980;2022-10-28T01:29:05;19.20;91.30
10384;DHT22;5238;43.508;4.980;2022-10-28T01:31:54;19.20;91.30
10384;DHT22;5238;43.508;4.980;2022-10-28T01:34:28;19.20;91.30
10384;DHT22;5238;43.508;4.980;2022-10-28T01:37:14;19.20;91.30
10384;DHT22;5238;43.508;4.980;2022-10-28T01:40:05;19.20;91.30
10384;DHT22;5238;43.508;4.980;2022-10-28T01:42:52;19.10;91.30
10384;DHT22;5238;43.508;4.980;2022-10-28T01:45:40;19.10;91.30
10384;DHT22;5238;43.508;4.980;2022-10-28T01:48:26;19.10;91.30
10384;DHT22;5238;43.508;4.980;2022-10-28T01:51:10;19.10;91.30
10384;DHT22;5238;43.508;4.980;2022-10-28T01:53:42;19.10;91.30
10384;DHT22;5238;43.508;4.980;2022-10-28T01:56:22;19.10;91.30
10384;DHT22;5238;43.508;4.980;2022-10-28T01:58:56;19.00;91.30
10384;DHT22;5238;43.508;4.980;2022-10-28T02:01:29;19.00;91.30
10384;DHT22;5238;43.508;4.980;2022-10-28T02:03:59;19.00;91.30
10384;DHT22;5238;43.508;4.980;2022-10-28T02:06:29;19.00;91.30
10384;DHT22;5238;43.508;4.980;2022-10-28T02:09:09;18.90;91.30
10384;DHT22;5238;43.508;4.980;2022-10-28T02:12:02;18.90;91.30
10384;DHT22;5238;43.508;4.980;2022-10-28T02:14:47;18.90;91.30
10384;DHT22;5238;43.508;4.980;2022-10-28T02:17:37;18.90;91.30
10384;DHT22;5238;43.508;4.980;2022-10-28T02:20:17;18.80;91.30
10384;DHT22;5238;43.508;4.980;2022-10-28T02:22:50;18.80;91.30
10384;DHT22;5238;43.508;4.980;2022-10-28T02:25:22;18.80;91.30
10384;DHT22;5238;43.508;4.980;2022-10-28T02:28:04;18.80;91.30
10384;DHT22;5238;43.508;4.980;2022-10-28T02:30:43;18.70;91.30
10384;DHT22;5238;43.508;4.980;2022-10-28T02:33:19;18.70;91.30
10384;DHT22;5238;43.508;4.980;2022-10-28T02:35:57;18.70;91.30
10384;DHT22;5238;43.508;4.980;2022-10-28T02:38:36;18.70;91.30
10384;DHT22;5238;43.508;4.980;2022-10-28T02:41:15;18.70;91.30
10384;DHT22;5238;43.508;4.980;2022-10-28T02:43:45;18.70;91.30
10384;DHT22;5238;43.508;4.980;2022-10-28T02:46:22;18.60;91.30
10384;DHT22;5238;43.508;4.980;2022-10-28T02:48:58;18.60;91.30
10384;DHT22;5238;43.508;4.980;2022-10-28T02:51:47;18.60;91.30
10384;DHT22;5238;43.508;4.980;2022-10-28T02:54:22;18.60;91.30
10384;DHT22;5238;43.508;4.980;2022-10-28T02:57:07;18.50;91.30
10384;DHT22;5238;43.508;4.980;2022-10-28T02:59:55;18.50;91.30
10384;DHT22;5238;43.508;4.980;2022-10-28T03:02:32;18.50;91.30
10384;DHT22;5238;43.508;4.980;2022-10-28T03:05:14;18.50;91.30
10384;DHT22;5238;43.508;4.980;2022-10-28T03:07:57;18.50;91.30
10384;DHT22;5238;43.508;4.980;2022-10-28T03:10:26;18.50;91.30
10384;DHT22;5238;43.508;4.980;2022-10-28T03:12:57;18.50;91.30
10384;DHT22;5238;43.508;4.980;2022-10-28T03:15:26;18.50;91.30
10384;DHT22;5238;43.508;4.980;2022-10-28T03:18:06;18.50;91.30
10384;DHT22;5238;43.508;4.980;2022-10-28T03:20:47;18.50;91.30
10384;DHT22;5238;43.508;4.980;2022-10-28T03:23:35;18.50;91.30
10384;DHT22;5238;43.508;4.980;2022-10-28T03:26:10;18.40;91.30
10384;DHT22;5238;43.508;4.980;2022-10-28T03:28:51;18.40;91.30
10384;DHT22;5238;43.508;4.980;2022-10-28T03:31:32;18.40;91.30
10384;DHT22;5238;43.508;4.980;2022-10-28T03:34:15;18.40;91.30
10384;DHT22;5238;43.508;4.980;2022-10-28T03:37:11;18.40;91.30
10384;DHT22;5238;43.508;4.980;2022-10-28T03:40:13;18.40;91.30
10384;DHT22;5238;43.508;4.980;2022-10-28T03:42:41;18.40;91.30
10384;DHT22;5238;43.508;4.980;2022-10-28T03:45:18;18.40;91.30
10384;DHT22;5238;43.508;4.980;2022-10-28T03:47:48;18.40;91.30
10384;DHT22;5238;43.508;4.980;2022-10-28T03:50:21;18.40;91.30
10384;DHT22;5238;43.508;4.980;2022-10-28T03:52:52;18.30;91.30
10384;DHT22;5238;43.508;4.980;2022-10-28T03:55:28;18.30;91.30
10384;DHT22;5238;43.508;4.980;2022-10-28T03:57:59;18.30;91.30
10384;DHT22;5238;43.508;4.980;2022-10-28T04:00:27;18.30;91.30
10384;DHT22;5238;43.508;4.980;2022-10-28T04:02:57;18.30;91.30
10384;DHT22;5238;43.508;4.980;2022-10-28T04:05:27;18.30;91.30
10384;DHT22;5238;43.508;4.980;2022-10-28T04:07:55;18.30;91.30
10384;DHT22;5238;43.508;4.980;2022-10-28T04:10:31;18.30;91.30
10384;DHT22;5238;43.508;4.980;2022-10-28T04:13:01;18.20;91.30
10384;DHT22;5238;43.508;4.980;2022-10-28T04:15:37;18.20;91.30
10384;DHT22;5238;43.508;4.980;2022-10-28T04:18:10;18.20;91.30
10384;DHT22;5238;43.508;4.980;2022-10-28T04:20:45;18.20;91.30
10384;DHT22;5238;43.508;4.980;2022-10-28T04:23:20;18.20;91.30
10384;DHT22;5238;43.508;4.980;2022-10-28T04:26:06;18.20;91.30
10384;DHT22;5238;43.508;4.980;2022-10-28T04:28:35;18.20;91.30
10384;DHT22;5238;43.508;4.980;2022-10-28T04:31:06;18.20;91.30
10384;DHT22;5238;43.508;4.980;2022-10-28T04:33:47;18.20;91.30
10384;DHT22;5238;43.508;4.980;2022-10-28T04:36:19;18.20;91.30
10384;DHT22;5238;43.508;4.980;2022-10-28T04:39:00;18.10;91.30
10384;DHT22;5238;43.508;4.980;2022-10-28T04:41:45;18.20;91.30
10384;DHT22;5238;43.508;4.980;2022-10-28T04:44:13;18.20;91.30
10384;DHT22;5238;43.508;4.980;2022-10-28T04:46:55;18.20;91.30
10384;DHT22;5238;43.508;4.980;2022-10-28T04:49:26;18.20;91.30
10384;DHT22;5238;43.508;4.980;2022-10-28T04:51:55;18.20;91.30
10384;DHT22;5238;43.508;4.980;2022-10-28T04:54:23;18.20;91.30
10384;DHT22;5238;43.508;4.980;2022-10-28T04:57:07;18.20;91.30
10384;DHT22;5238;43.508;4.980;2022-10-28T04:59:34;18.20;91.30
10384;DHT22;5238;43.508;4.980;2022-10-28T05:02:17;18.20;91.30
10384;DHT22;5238;43.508;4.980;2022-10-28T05:04:46;18.20;91.30
10384;DHT22;5238;43.508;4.980;2022-10-28T05:07:13;18.20;91.30
10384;DHT22;5238;43.508;4.980;2022-10-28T05:09:40;18.10;91.30
10384;DHT22;5238;43.508;4.980;2022-10-28T05:12:08;18.10;91.30
10384;DHT22;5238;43.508;4.980;2022-10-28T05:14:35;18.00;91.30
10384;DHT22;5238;43.508;4.980;2022-10-28T05:17:02;18.00;91.30
10384;DHT22;5238;43.508;4.980;2022-10-28T05:19:29;18.00;91.30
10384;DHT22;5238;43.508;4.980;2022-10-28T05:21:56;18.00;91.30
10384;DHT22;5238;43.508;4.980;2022-10-28T05:24:23;18.00;91.30
10384;DHT22;5238;43.508;4.980;2022-10-28T05:26:50;18.00;91.30
10384;DHT22;5238;43.508;4.980;2022-10-28T05:29:19;18.00;91.30
10384;DHT22;5238;43.508;4.980;2022-10-28T05:31:46;18.00;91.30
10384;DHT22;5238;43.508;4.980;2022-10-28T05:34:13;18.00;91.30
10384;DHT22;5238;43.508;4.980;2022-10-28T05:36:40;17.90;91.30
10384;DHT22;5238;43.508;4.980;2022-10-28T05:39:08;17.90;91.30
10384;DHT22;5238;43.508;4.980;2022-10-28T05:41:43;17.90;91.30
10384;DHT22;5238;43.508;4.980;2022-10-28T05:44:10;17.90;91.30
10384;DHT22;5238;43.508;4.980;2022-10-28T05:46:43;18.00;91.30
10384;DHT22;5238;43.508;4.980;2022-10-28T05:49:10;18.00;91.30
10384;DHT22;5238;43.508;4.980;2022-10-28T05:51:37;18.00;91.30
10384;DHT22;5238;43.508;4.980;2022-10-28T05:54:06;18.00;91.30
10384;DHT22;5238;43.508;4.980;2022-10-28T05:56:47;18.00;91.30
10384;DHT22;5238;43.508;4.980;2022-10-28T05:59:15;17.90;91.30
10384;DHT22;5238;43.508;4.980;2022-10-28T06:01:48;17.90;91.30
10384;DHT22;5238;43.508;4.980;2022-10-28T06:04:15;17.90;91.30
10384;DHT22;5238;43.508;4.980;2022-10-28T06:06:44;17.90;91.30
10384;DHT22;5238;43.508;4.980;2022-10-28T06:09:14;17.90;91.30
10384;DHT22;5238;43.508;4.980;2022-10-28T06:11:42;17.90;91.30
10384;DHT22;5238;43.508;4.980;2022-10-28T06:14:15;17.80;91.30
10384;DHT22;5238;43.508;4.980;2022-10-28T06:16:42;17.80;91.30
10384;DHT22;5238;43.508;4.980;2022-10-28T06:19:19;17.80;91.30
10384;DHT22;5238;43.508;4.980;2022-10-28T06:21:48;17.80;91.30
10384;DHT22;5238;43.508;4.980;2022-10-28T06:24:15;17.80;91.30
10384;DHT22;5238;43.508;4.980;2022-10-28T06:26:50;17.80;91.30
10384;DHT22;5238;43.508;4.980;2022-10-28T06:29:19;17.70;91.30
10384;DHT22;5238;43.508;4.980;2022-10-28T06:31:50;17.70;91.30
10384;DHT22;5238;43.508;4.980;2022-10-28T06:34:34;17.70;91.30
10384;DHT22;5238;43.508;4.980;2022-10-28T06:37:04;17.70;91.30
10384;DHT22;5238;43.508;4.980;2022-10-28T06:39:35;17.70;91.30
10384;DHT22;5238;43.508;4.980;2022-10-28T06:42:10;17.70;91.30
10384;DHT22;5238;43.508;4.980;2022-10-28T06:44:37;17.70;91.30
10384;DHT22;5238;43.508;4.980;2022-10-28T06:47:11;17.70;91.30
10384;DHT22;5238;43.508;4.980;2022-10-28T06:49:48;17.80;91.30
10384;DHT22;5238;43.508;4.980;2022-10-28T06:52:16;17.90;91.30
10384;DHT22;5238;43.508;4.980;2022-10-28T06:54:43;18.00;91.30
10384;DHT22;5238;43.508;4.980;2022-10-28T06:57:12;18.00;91.30
10384;DHT22;5238;43.508;4.980;2022-10-28T06:59:53;18.20;91.30
10384;DHT22;5238;43.508;4.980;2022-10-28T07:02:21;18.30;91.30
10384;DHT22;5238;43.508;4.980;2022-10-28T07:05:00;18.40;91.30
10384;DHT22;5238;43.508;4.980;2022-10-28T07:07:28;18.60;91.30
10384;DHT22;5238;43.508;4.980;2022-10-28T07:10:01;18.80;91.30
10384;DHT22;5238;43.508;4.980;2022-10-28T07:12:31;19.00;91.30
10384;DHT22;5238;43.508;4.980;2022-10-28T07:15:17;19.20;91.30
10384;DHT22;5238;43.508;4.980;2022-10-28T07:17:50;19.40;91.30
10384;DHT22;5238;43.508;4.980;2022-10-28T07:20:19;19.60;91.30
10384;DHT22;5238;43.508;4.980;2022-10-28T07:23:00;19.80;91.30
10384;DHT22;5238;43.508;4.980;2022-10-28T07:25:29;20.00;91.30
10384;DHT22;5238;43.508;4.980;2022-10-28T07:27:57;20.10;91.30
10384;DHT22;5238;43.508;4.980;2022-10-28T07:30:25;20.20;91.30
10384;DHT22;5238;43.508;4.980;2022-10-28T07:32:52;20.40;91.30
10384;DHT22;5238;43.508;4.980;2022-10-28T07:35:26;20.60;91.30
10384;DHT22;5238;43.508;4.980;2022-10-28T07:37:54;20.70;91.30
10384;DHT22;5238;43.508;4.980;2022-10-28T07:40:29;20.90;91.30
10384;DHT22;5238;43.508;4.980;2022-10-28T07:42:57;21.10;91.30
10384;DHT22;5238;43.508;4.980;2022-10-28T07:45:38;21.30;91.30
10384;DHT22;5238;43.508;4.980;2022-10-28T07:48:08;21.50;91.30
10384;DHT22;5238;43.508;4.980;2022-10-28T07:50:42;21.70;91.30
10384;DHT22;5238;43.508;4.980;2022-10-28T07:53:10;21.90;91.30
10384;DHT22;5238;43.508;4.980;2022-10-28T07:55:41;22.00;91.30
10384;DHT22;5238;43.508;4.980;2022-10-28T07:58:09;22.20;91.30
10384;DHT22;5238;43.508;4.980;2022-10-28T08:00:40;22.40;91.30
10384;DHT22;5238;43.508;4.980;2022-10-28T08:03:08;22.60;91.30
10384;DHT22;5238;43.508;4.980;2022-10-28T08:05:40;22.80;91.30
10384;DHT22;5238;43.508;4.980;2022-10-28T08:08:16;22.90;91.30
10384;DHT22;5238;43.508;4.980;2022-10-28T08:10:45;23.10;91.30
10384;DHT22;5238;43.508;4.980;2022-10-28T08:13:13;23.20;91.30
10384;DHT22;5238;43.508;4.980;2022-10-28T08:15:42;23.40;91.30
10384;DHT22;5238;43.508;4.980;2022-10-28T08:18:13;23.60;91.30
10384;DHT22;5238;43.508;4.980;2022-10-28T08:20:46;23.80;91.30
10384;DHT22;5238;43.508;4.980;2022-10-28T08:23:15;24.00;91.30
10384;DHT22;5238;43.508;4.980;2022-10-28T08:25:49;24.20;91.30
10384;DHT22;5238;43.508;4.980;2022-10-28T08:28:20;24.40;91.30
10384;DHT22;5238;43.508;4.980;2022-10-28T08:30:48;24.70;91.30
10384;DHT22;5238;43.508;4.980;2022-10-28T08:33:30;24.90;91.30
10384;DHT22;5238;43.508;4.980;2022-10-28T08:36:04;25.00;91.30
10384;DHT22;5238;43.508;4.980;2022-10-28T08:38:34;25.20;91.30
10384;DHT22;5238;43.508;4.980;2022-10-28T08:41:13;25.40;91.30
10384;DHT22;5238;43.508;4.980;2022-10-28T08:43:59;25.60;91.30
10384;DHT22;5238;43.508;4.980;2022-10-28T08:46:58;25.70;91.30
10384;DHT22;5238;43.508;4.980;2022-10-28T08:49:32;25.90;91.30
10384;DHT22;5238;43.508;4.980;2022-10-28T08:52:07;26.00;91.30
10384;DHT22;5238;43.508;4.980;2022-10-28T08:54:41;26.20;91.30
10384;DHT22;5238;43.508;4.980;2022-10-28T08:57:17;26.30;91.30
10384;DHT22;5238;43.508;4.980;2022-10-28T08:59:50;26.40;91.30
10384;DHT22;5238;43.508;4.980;2022-10-28T09:02:21;26.50;91.30
10384;DHT22;5238;43.508;4.980;2022-10-28T09:04:55;26.70;91.30
10384;DHT22;5238;43.508;4.980;2022-10-28T09:07:32;26.90;91.30
10384;DHT22;5238;43.508;4.980;2022-10-28T09:10:13;27.00;91.30
10384;DHT22;5238;43.508;4.980;2022-10-28T09:12:47;27.20;91.30
10384;DHT22;5238;43.508;4.980;2022-10-28T09:15:36;27.30;91.30
10384;DHT22;5238;43.508;4.980;2022-10-28T09:18:16;27.50;91.30
10384;DHT22;5238;43.508;4.980;2022-10-28T09:20:54;27.70;91.30
10384;DHT22;5238;43.508;4.980;2022-10-28T09:23:42;27.90;91.30
10384;DHT22;5238;43.508;4.980;2022-10-28T09:26:27;27.90;91.30
10384;DHT22;5238;43.508;4.980;2022-10-28T09:29:07;28.10;91.30
10384;DHT22;5238;43.508;4.980;2022-10-28T09:31:40;28.00;91.30
10384;DHT22;5238;43.508;4.980;2022-10-28T09:34:30;28.00;91.30
10384;DHT22;5238;43.508;4.980;2022-10-28T09:37:12;28.00;91.30
10384;DHT22;5238;43.508;4.980;2022-10-28T09:40:13;28.10;91.30
10384;DHT22;5238;43.508;4.980;2022-10-28T09:42:46;28.30;91.30
10384;DHT22;5238;43.508;4.980;2022-10-28T09:45:22;28.40;91.30
10384;DHT22;5238;43.508;4.980;2022-10-28T09:48:04;28.50;91.30
10384;DHT22;5238;43.508;4.980;2022-10-28T09:50:52;28.60;91.30
10384;DHT22;5238;43.508;4.980;2022-10-28T09:53:34;28.70;91.30
10384;DHT22;5238;43.508;4.980;2022-10-28T09:56:06;28.70;91.30
10384;DHT22;5238;43.508;4.980;2022-10-28T09:58:41;28.80;91.30
10384;DHT22;5238;43.508;4.980;2022-10-28T10:01:18;28.80;91.30
10384;DHT22;5238;43.508;4.980;2022-10-28T10:03:48;28.80;91.30
10384;DHT22;5238;43.508;4.980;2022-10-28T10:06:22;28.90;91.30
10384;DHT22;5238;43.508;4.980;2022-10-28T10:09:03;28.90;91.30
10384;DHT22;5238;43.508;4.980;2022-10-28T10:11:47;29.00;91.30
10384;DHT22;5238;43.508;4.980;2022-10-28T10:14:20;29.00;91.30
10384;DHT22;5238;43.508;4.980;2022-10-28T10:16:53;29.20;91.30
10384;DHT22;5238;43.508;4.980;2022-10-28T10:19:24;29.10;91.30
10384;DHT22;5238;43.508;4.980;2022-10-28T10:21:56;29.10;91.30
10384;DHT22;5238;43.508;4.980;2022-10-28T10:24:33;29.20;91.30
10384;DHT22;5238;43.508;4.980;2022-10-28T10:27:16;29.20;91.30
10384;DHT22;5238;43.508;4.980;2022-10-28T10:29:58;29.30;91.30
10384;DHT22;5238;43.508;4.980;2022-10-28T10:32:31;29.30;91.30
10384;DHT22;5238;43.508;4.980;2022-10-28T10:35:03;29.40;91.30
10384;DHT22;5238;43.508;4.980;2022-10-28T10:37:35;29.50;91.30
10384;DHT22;5238;43.508;4.980;2022-10-28T10:40:20;29.40;91.30
10384;DHT22;5238;43.508;4.980;2022-10-28T10:42:50;29.50;91.30
10384;DHT22;5238;43.508;4.980;2022-10-28T10:45:26;29.50;91.30
10384;DHT22;5238;43.508;4.980;2022-10-28T10:48:10;29.50;91.30
10384;DHT22;5238;43.508;4.980;2022-10-28T10:50:39;29.50;91.30
10384;DHT22;5238;43.508;4.980;2022-10-28T10:53:17;29.40;91.30
10384;DHT22;5238;43.508;4.980;2022-10-28T10:55:49;29.30;91.30
10384;DHT22;5238;43.508;4.980;2022-10-28T10:58:34;29.20;91.30
10384;DHT22;5238;43.508;4.980;2022-10-28T11:01:06;29.00;91.30
10384;DHT22;5238;43.508;4.980;2022-10-28T11:03:52;28.90;91.30
10384;DHT22;5238;43.508;4.980;2022-10-28T11:06:27;28.70;91.30
10384;DHT22;5238;43.508;4.980;2022-10-28T11:09:02;28.70;91.30
10384;DHT22;5238;43.508;4.980;2022-10-28T11:11:35;28.50;91.30
10384;DHT22;5238;43.508;4.980;2022-10-28T11:14:24;28.30;91.30
10384;DHT22;5238;43.508;4.980;2022-10-28T11:16:55;28.10;91.30
10384;DHT22;5238;43.508;4.980;2022-10-28T11:19:28;28.00;91.30
10384;DHT22;5238;43.508;4.980;2022-10-28T11:22:20;27.90;91.30
10384;DHT22;5238;43.508;4.980;2022-10-28T11:25:24;27.80;91.30
10384;DHT22;5238;43.508;4.980;2022-10-28T11:28:03;27.70;91.30
10384;DHT22;5238;43.508;4.980;2022-10-28T11:30:51;27.60;91.30
10384;DHT22;5238;43.508;4.980;2022-10-28T11:33:27;27.50;91.30
10384;DHT22;5238;43.508;4.980;2022-10-28T11:36:14;27.50;91.30
10384;DHT22;5238;43.508;4.980;2022-10-28T11:39:06;27.50;91.30
10384;DHT22;5238;43.508;4.980;2022-10-28T11:41:56;27.40;91.30
10384;DHT22;5238;43.508;4.980;2022-10-28T11:44:35;27.40;91.30
10384;DHT22;5238;43.508;4.980;2022-10-28T11:50:48;27.40;91.30
10384;DHT22;5238;43.508;4.980;2022-10-28T11:56:29;27.30;91.30
10384;DHT22;5238;43.508;4.980;2022-10-28T11:59:33;27.20;91.30
10384;DHT22;5238;43.508;4.980;2022-10-28T12:02:31;27.20;91.30
10384;DHT22;5238;43.508;4.980;2022-10-28T12:05:24;27.20;91.30
10384;DHT22;5238;43.508;4.980;2022-10-28T12:08:29;27.20;91.30
10384;DHT22;5238;43.508;4.980;2022-10-28T12:11:17;27.20;91.30
10384;DHT22;5238;43.508;4.980;2022-10-28T12:14:10;27.20;91.30
10384;DHT22;5238;43.508;4.980;2022-10-28T12:16:46;27.20;91.30
10384;DHT22;5238;43.508;4.980;2022-10-28T12:19:17;27.20;91.30
10384;DHT22;5238;43.508;4.980;2022-10-28T12:21:58;27.20;91.30
10384;DHT22;5238;43.508;4.980;2022-10-28T12:24:52;27.10;91.30
10384;DHT22;5238;43.508;4.980;2022-10-28T12:27:24;27.20;91.30
10384;DHT22;5238;43.508;4.980;2022-10-28T12:30:06;27.10;91.30
10384;DHT22;5238;43.508;4.980;2022-10-28T12:32:39;27.10;91.30
10384;DHT22;5238;43.508;4.980;2022-10-28T12:35:14;27.10;91.30
10384;DHT22;5238;43.508;4.980;2022-10-28T12:38:02;27.10;91.30
10384;DHT22;5238;43.508;4.980;2022-10-28T12:41:01;27.10;91.30
10384;DHT22;5238;43.508;4.980;2022-10-28T12:43:33;27.00;91.30
10384;DHT22;5238;43.508;4.980;2022-10-28T12:46:03;27.00;91.30
10384;DHT22;5238;43.508;4.980;2022-10-28T12:48:45;27.00;91.30
10384;DHT22;5238;43.508;4.980;2022-10-28T12:51:18;27.00;91.30
10384;DHT22;5238;43.508;4.980;2022-10-28T12:54:07;26.90;91.30
10384;DHT22;5238;43.508;4.980;2022-10-28T12:56:51;26.90;91.30
10384;DHT22;5238;43.508;4.980;2022-10-28T12:59:23;26.80;91.30
10384;DHT22;5238;43.508;4.980;2022-10-28T13:02:24;26.70;91.30
10384;DHT22;5238;43.508;4.980;2022-10-28T13:05:06;26.70;91.30
10384;DHT22;5238;43.508;4.980;2022-10-28T13:11:31;26.60;91.30
10384;DHT22;5238;43.508;4.980;2022-10-28T13:14:48;26.50;91.30
10384;DHT22;5238;43.508;4.980;2022-10-28T13:17:36;26.50;91.30
10384;DHT22;5238;43.508;4.980;2022-10-28T13:20:24;26.40;91.30
10384;DHT22;5238;43.508;4.980;2022-10-28T13:23:18;26.40;91.30
10384;DHT22;5238;43.508;4.980;2022-10-28T13:26:06;26.40;91.30
10384;DHT22;5238;43.508;4.980;2022-10-28T13:28:54;26.40;91.30
10384;DHT22;5238;43.508;4.980;2022-10-28T13:31:35;26.40;91.30
10384;DHT22;5238;43.508;4.980;2022-10-28T13:34:03;26.30;91.30
10384;DHT22;5238;43.508;4.980;2022-10-28T13:36:46;26.30;91.30
10384;DHT22;5238;43.508;4.980;2022-10-28T13:39:40;26.30;91.30
10384;DHT22;5238;43.508;4.980;2022-10-28T13:42:30;26.30;91.30
10384;DHT22;5238;43.508;4.980;2022-10-28T13:45:43;26.30;91.30
10384;DHT22;5238;43.508;4.980;2022-10-28T13:48:47;26.30;91.30
10384;DHT22;5238;43.508;4.980;2022-10-28T13:51:44;26.30;91.30
10384;DHT22;5238;43.508;4.980;2022-10-28T13:54:35;26.20;91.30
10384;DHT22;5238;43.508;4.980;2022-10-28T13:57:26;26.20;91.30
10384;DHT22;5238;43.508;4.980;2022-10-28T14:00:32;26.20;91.30
10384;DHT22;5238;43.508;4.980;2022-10-28T14:03:18;26.20;91.30
10384;DHT22;5238;43.508;4.980;2022-10-28T14:05:53;26.20;91.30
10384;DHT22;5238;43.508;4.980;2022-10-28T14:08:31;26.20;91.30
10384;DHT22;5238;43.508;4.980;2022-10-28T14:11:21;26.20;91.30
10384;DHT22;5238;43.508;4.980;2022-10-28T14:14:04;26.10;91.30
10384;DHT22;5238;43.508;4.980;2022-10-28T14:16:39;26.10;91.30
10384;DHT22;5238;43.508;4.980;2022-10-28T14:19:27;26.10;91.30
10384;DHT22;5238;43.508;4.980;2022-10-28T14:21:59;26.00;91.30
10384;DHT22;5238;43.508;4.980;2022-10-28T14:24:42;25.90;91.30
10384;DHT22;5238;43.508;4.980;2022-10-28T14:27:38;25.80;91.30
10384;DHT22;5238;43.508;4.980;2022-10-28T14:30:21;25.70;91.30
10384;DHT22;5238;43.508;4.980;2022-10-28T14:35:55;25.60;91.30
10384;DHT22;5238;43.508;4.980;2022-10-28T14:42:10;25.50;91.30
10384;DHT22;5238;43.508;4.980;2022-10-28T14:44:58;25.50;91.30
10384;DHT22;5238;43.508;4.980;2022-10-28T14:47:55;25.50;91.30
10384;DHT22;5238;43.508;4.980;2022-10-28T14:50:36;25.40;91.30
10384;DHT22;5238;43.508;4.980;2022-10-28T14:53:13;25.40;91.30
10384;DHT22;5238;43.508;4.980;2022-10-28T14:55:46;25.40;91.30
10384;DHT22;5238;43.508;4.980;2022-10-28T14:58:21;25.30;91.30
10384;DHT22;5238;43.508;4.980;2022-10-28T15:01:16;25.30;91.30
10384;DHT22;5238;43.508;4.980;2022-10-28T15:04:00;25.30;91.30
10384;DHT22;5238;43.508;4.980;2022-10-28T15:06:36;25.20;91.30
10384;DHT22;5238;43.508;4.980;2022-10-28T15:09:25;25.10;91.30
10384;DHT22;5238;43.508;4.980;2022-10-28T15:11:57;25.10;91.30
10384;DHT22;5238;43.508;4.980;2022-10-28T15:14:42;25.10;91.30
10384;DHT22;5238;43.508;4.980;2022-10-28T15:17:21;25.00;91.30
10384;DHT22;5238;43.508;4.980;2022-10-28T15:20:17;25.00;91.30
10384;DHT22;5238;43.508;4.980;2022-10-28T15:23:11;24.90;91.30
10384;DHT22;5238;43.508;4.980;2022-10-28T15:25:42;24.80;91.30
10384;DHT22;5238;43.508;4.980;2022-10-28T15:28:23;24.80;91.30
10384;DHT22;5238;43.508;4.980;2022-10-28T15:30:58;24.80;91.30
10384;DHT22;5238;43.508;4.980;2022-10-28T15:33:30;24.80;91.30
10384;DHT22;5238;43.508;4.980;2022-10-28T15:36:08;24.70;91.30
10384;DHT22;5238;43.508;4.980;2022-10-28T15:39:04;24.70;91.30
10384;DHT22;5238;43.508;4.980;2022-10-28T15:42:02;24.70;91.30
10384;DHT22;5238;43.508;4.980;2022-10-28T15:44:33;24.60;91.30
10384;DHT22;5238;43.508;4.980;2022-10-28T15:47:39;24.60;91.30
10384;DHT22;5238;43.508;4.980;2022-10-28T15:50:24;24.50;91.30
10384;DHT22;5238;43.508;4.980;2022-10-28T15:55:38;24.40;91.30
10384;DHT22;5238;43.508;4.980;2022-10-28T15:58:32;24.40;91.30
10384;DHT22;5238;43.508;4.980;2022-10-28T16:01:36;24.30;91.30
10384;DHT22;5238;43.508;4.980;2022-10-28T16:04:07;24.30;91.30
10384;DHT22;5238;43.508;4.980;2022-10-28T16:07:05;24.20;91.30
10384;DHT22;5238;43.508;4.980;2022-10-28T16:09:35;24.20;91.30
10384;DHT22;5238;43.508;4.980;2022-10-28T16:12:17;24.10;91.30
10384;DHT22;5238;43.508;4.980;2022-10-28T16:14:54;24.10;91.30
10384;DHT22;5238;43.508;4.980;2022-10-28T16:17:41;24.00;91.30
10384;DHT22;5238;43.508;4.980;2022-10-28T16:20:14;23.90;91.30
10384;DHT22;5238;43.508;4.980;2022-10-28T16:22:45;23.90;91.30
10384;DHT22;5238;43.508;4.980;2022-10-28T16:27:58;23.80;91.30
10384;DHT22;5238;43.508;4.980;2022-10-28T16:30:27;23.70;91.30
10384;DHT22;5238;43.508;4.980;2022-10-28T16:32:58;23.70;91.30
10384;DHT22;5238;43.508;4.980;2022-10-28T16:35:33;23.60;91.30
10384;DHT22;5238;43.508;4.980;2022-10-28T16:38:00;23.60;91.30
10384;DHT22;5238;43.508;4.980;2022-10-28T16:40:32;23.50;91.30
10384;DHT22;5238;43.508;4.980;2022-10-28T16:43:15;23.40;91.30
10384;DHT22;5238;43.508;4.980;2022-10-28T16:45:53;23.40;91.30
10384;DHT22;5238;43.508;4.980;2022-10-28T16:48:42;23.40;91.30
10384;DHT22;5238;43.508;4.980;2022-10-28T16:51:20;23.30;91.30
10384;DHT22;5238;43.508;4.980;2022-10-28T16:53:47;23.20;91.30
10384;DHT22;5238;43.508;4.980;2022-10-28T16:56:16;23.10;91.30
10384;DHT22;5238;43.508;4.980;2022-10-28T16:58:44;23.10;91.30
10384;DHT22;5238;43.508;4.980;2022-10-28T17:01:26;23.00;91.30
10384;DHT22;5238;43.508;4.980;2022-10-28T17:03:55;23.00;91.30
10384;DHT22;5238;43.508;4.980;2022-10-28T17:06:23;22.90;91.30
10384;DHT22;5238;43.508;4.980;2022-10-28T17:09:02;22.90;91.30
10384;DHT22;5238;43.508;4.980;2022-10-28T17:11:42;22.80;91.30
10384;DHT22;5238;43.508;4.980;2022-10-28T17:14:14;22.80;91.30
10384;DHT22;5238;43.508;4.980;2022-10-28T17:16:47;22.70;91.30
10384;DHT22;5238;43.508;4.980;2022-10-28T17:19:19;22.70;91.30